Terminal Aerodrome Forecast
Issued by NWS Wilmington, OH

Current Version | Previous Version | Graphics & Text | Print | Product List | Glossary On
Versions: 1 2 3 4 5 6 7 8 9 10 11 12 13 14 15 16 17 18 19 20 21 22
000
FTUS41 KILN 211140
TAFDAY
TAF
KDAY 211140Z 2112/2212 34011KT P6SM -SHRA OVC006
     FM212200 02012KT P6SM OVC010
     FM220200 04012KT 4SM -RA BR OVC010
     FM220700 04012KT 4SM -RA BR OVC007=

USA.gov is the U.S. government's official web portal to all federal, state and local government web resources and services.